Gonzales, California
Current Conditions -  °F | °C
As of 5:53 AM on Thursday 30 Oct 2014 (Local Time) from KSNS Reporting Station
Clear Clear  
Wind Chill: 62°   Ceiling: Unl
Heat Index: 62°   Visibility: 10mi
Dew Point: 40°   Wind: 13mph
Humidity: 44%   Direction: 100°E
Pressure: 29.92"   Gusts: NA
Location:  36.51°N, 121.44°W
Report Text: KSNS 301253Z AUTO 10011KT 10SM CLR 17/04 A2992 RMK AO2 SLP142 T01670044
Loading
Personal Weather Stations






























Interactive Weather Map
Tropical Storm Tracking
New forecast layout! Learn more

10-Day Weather Forecast

Advertisements
Track Severe Weather on mobile